Terminal Aerodrome Forecast
Issued by NWS

Home | Current Version | Previous Version | Text Only | Print | Product List | Glossary On
Versions: 1 2 3 4 5 6 7 8 9 10 11 12 13 14 15 16 17 18 19 20 21 22 23 24 25 26 27 28 29 30 31 32 33 34
259
FTAK31 PANC 071236 AAA
TAFAIL
TAF AMD
PAIL 071236Z 0713/0812 36012KT P6SM BKN015
      TEMPO 0713/0716 36012G20KT
     FM071600 36010KT P6SM FEW015 SCT060 BKN120
     FM072000 35008KT P6SM FEW060 BKN120=

USA.gov is the U.S. government's official web portal to all federal, state and local government web resources and services.